| time (UTC) | temp C | wind direction | speed KPH | gust KPH | rain 1hr cm | rain 24hr cm | rain mn cm | humidity % | barometer mb |
| 20260506165005 | 30 | 222 | 4.8 | 12.9 | 0.00 | 0.00 | 0.00 | 53 | 1015.7 |
| 20260506164504 | 30 | 242 | 3.2 | 12.9 | 0.00 | 0.00 | 0.00 | 53 | 1015.7 |
| 20260506163504 | 30 | 286 | 3.2 | 16.1 | 0.00 | 0.00 | 0.00 | 53 | 1015.8 |
| 20260506163004 | 30 | 223 | 3.2 | 14.5 | 0.00 | 0.00 | 0.00 | 52 | 1015.9 |
| 20260506162503 | 30 | 264 | 4.8 | 19.3 | 0.00 | 0.00 | 0.00 | 53 | 1016.0 |
| 20260506162004 | 30 | 222 | 4.8 | 19.3 | 0.00 | 0.00 | 0.00 | 54 | 1016.0 |
| 20260506161004 | 30 | 167 | 3.2 | 16.1 | 0.00 | 0.00 | 0.00 | 56 | 1015.9 |
| 20260506160504 | 29 | 202 | 4.8 | 19.3 | 0.00 | 0.00 | 0.00 | 56 | 1016.0 |
| 20260506160003 | 29 | 170 | 8.0 | 19.3 | 0.00 | 0.00 | 0.00 | 55 | 1016.0 |
| 20260506155504 | 29 | 230 | 8.0 | 19.3 | 0.00 | 0.00 | 0.00 | 56 | 1016.0 |
| 20260506154503 | 28 | 155 | 8.0 | 19.3 | 0.00 | 0.00 | 0.00 | 57 | 1016.1 |
| 20260506154004 | 28 | 230 | 9.7 | 19.3 | 0.00 | 0.00 | 0.00 | 58 | 1016.1 |
| 20260506153504 | 28 | 224 | 8.0 | 19.3 | 0.00 | 0.00 | 0.00 | 59 | 1016.1 |
| 20260506152504 | 28 | 158 | 3.2 | 14.5 | 0.00 | 0.00 | 0.00 | 62 | 1016.1 |
| 20260506152004 | 27 | 263 | 8.0 | 14.5 | 0.00 | 0.00 | 0.00 | 62 | 1016.1 |
| 20260506151504 | 27 | 233 | 8.0 | 14.5 | 0.00 | 0.00 | 0.00 | 62 | 1016.0 |
| 20260506151004 | 27 | 255 | 6.4 | 14.5 | 0.00 | 0.00 | 0.00 | 63 | 1016.0 |
| 20260506150504 | 27 | 217 | 6.4 | 11.3 | 0.00 | 0.00 | 0.00 | 63 | 1016.0 |
| 20260506150004 | 27 | 197 | 4.8 | 12.9 | 0.00 | 0.00 | 0.00 | 64 | 1016.0 |
| 20260506145004 | 27 | 170 | 4.8 | 16.1 | 0.00 | 0.00 | 0.00 | 66 | 1015.9 |
| 20260506144503 | 26 | 167 | 6.4 | 14.5 | 0.00 | 0.00 | 0.00 | 66 | 1015.8 |
| 20260506143503 | 26 | 192 | 3.2 | 14.5 | 0.00 | 0.00 | 0.00 | 68 | 1015.9 |
| 20260506143004 | 26 | 162 | 3.2 | 14.5 | 0.00 | 0.00 | 0.00 | 68 | 1015.9 |
| 20260506142004 | 26 | 170 | 8.0 | 14.5 | 0.00 | 0.00 | 0.00 | 68 | 1015.9 |
| 20260506141003 | 25 | 181 | 4.8 | 19.3 | 0.00 | 0.00 | 0.00 | 70 | 1015.9 |
| 20260506140503 | 25 | 209 | 6.4 | 19.3 | 0.00 | 0.00 | 0.00 | 70 | 1015.9 |
| 20260506135504 | 25 | 209 | 8.0 | 19.3 | 0.00 | 0.00 | 0.00 | 71 | 1016.0 |
| 20260506134503 | 25 | 163 | 6.4 | 14.5 | 0.00 | 0.00 | 0.00 | 72 | 1016.0 |
| 20260506134004 | 25 | 147 | 6.4 | 14.5 | 0.00 | 0.00 | 0.00 | 73 | 1016.1 |
| 20260506132504 | 23 | 232 | 4.8 | 16.1 | 0.00 | 0.00 | 0.00 | 75 | 1016.1 |
| 20260506132003 | 23 | 143 | 4.8 | 16.1 | 0.00 | 0.00 | 0.00 | 76 | 1016.1 |
| 20260506131504 | 23 | 230 | 8.0 | 14.5 | 0.00 | 0.00 | 0.00 | 76 | 1016.0 |
| 20260506131003 | 23 | 187 | 6.4 | 12.9 | 0.00 | 0.00 | 0.00 | 77 | 1015.9 |
| 20260506130505 | 22 | 175 | 6.4 | 12.9 | 0.00 | 0.00 | 0.00 | 78 | 1015.9 |
| 20260506130004 | 22 | 213 | 4.8 | 9.7 | 0.00 | 0.00 | 0.00 | 80 | 1015.9 |
| 20260506125503 | 22 | 22 | 1.6 | 9.7 | 0.00 | 0.00 | 0.00 | 82 | 1015.9 |
| 20260506125004 | 21 | 188 | 3.2 | 9.7 | 0.00 | 0.00 | 0.00 | 82 | 1015.8 |
| 20260506124004 | 21 | 141 | 0.0 | 3.2 | 0.00 | 0.00 | 0.00 | 86 | 1015.7 |
| 20260506123505 | 20 | 82 | 0.0 | 4.8 | 0.00 | 0.00 | 0.00 | 89 | 1015.6 |
| 20260506123004 | 19 | 180 | 1.6 | 4.8 | 0.00 | 0.00 | 0.00 | 91 | 1015.5 |
| 20260506122504 | 18 | 171 | 0.0 | 4.8 | 0.00 | 0.00 | 0.00 | 92 | 1015.4 |
| 20260506122004 | 18 | 143 | 1.6 | 4.8 | 0.00 | 0.00 | 0.00 | 93 | 1015.4 |
| 20260506121503 | 18 | 170 | 0.0 | 3.2 | 0.00 | 0.00 | 0.00 | 93 | 1015.3 |
| 20260506121004 | 18 | 126 | 0.0 | 1.6 | 0.00 | 0.00 | 0.00 | 93 | 1015.3 |
| 20260506120504 | 17 | 71 | 0.0 | 1.6 | 0.00 | 0.00 | 0.00 | 93 | 1015.3 |
| 20260506120004 | 17 | 71 | 0.0 | 1.6 | 0.00 | 0.00 | 0.00 | 93 | 1015.3 |
| 20260506115504 | 17 | 71 | 0.0 | 0.0 | 0.00 | 0.00 | 0.00 | 93 | 1015.3 |
| 20260506115004 | 17 | 71 | 0.0 | 0.0 | 0.00 | 0.00 | 0.00 | 93 | 1015.3 |
| 20260506114005 | 16 | 71 | 0.0 | 0.0 | 0.00 | 0.00 | 0.00 | 93 | 1015.2 |
| 20260506113004 | 16 | 71 | 0.0 | 0.0 | 0.00 | 0.00 | 0.00 | 93 | 1015.1 |
| 20260506112504 | 16 | 71 | 0.0 | 0.0 | 0.00 | 0.00 | 0.00 | 93 | 1015.1 |
| 20260506111504 | 16 | 71 | 0.0 | 0.0 | 0.00 | 0.00 | 0.00 | 93 | 1015.2 |
| 20260506111004 | 16 | 71 | 0.0 | 0.0 | 0.00 | 0.00 | 0.00 | 93 | 1015.2 |
| 20260506110004 | 16 | 71 | 0.0 | 0.0 | 0.00 | 0.00 | 0.00 | 93 | 1015.0 |
| 20260506105504 | 16 | 71 | 0.0 | 0.0 | 0.00 | 0.00 | 0.00 | 93 | 1014.9 |
| 20260506105004 | 16 | 71 | 0.0 | 0.0 | 0.00 | 0.00 | 0.00 | 93 | 1015.0 |
| 20260506104504 | 16 | 71 | 0.0 | 0.0 | 0.00 | 0.00 | 0.00 | 93 | 1014.8 |
| 20260506104004 | 16 | 71 | 0.0 | 0.0 | 0.00 | 0.00 | 0.00 | 92 | 1014.7 |
| 20260506103504 | 16 | 71 | 0.0 | 0.0 | 0.00 | 0.00 | 0.00 | 92 | 1014.7 |
| 20260506103004 | 16 | 71 | 0.0 | 0.0 | 0.00 | 0.00 | 0.00 | 92 | 1014.7 |
| 20260506102504 | 16 | 71 | 0.0 | 0.0 | 0.00 | 0.00 | 0.00 | 92 | 1014.6 |
| 20260506102004 | 16 | 71 | 0.0 | 0.0 | 0.00 | 0.00 | 0.00 | 92 | 1014.6 |
| 20260506101504 | 16 | 71 | 0.0 | 0.0 | 0.00 | 0.00 | 0.00 | 93 | 1014.6 |
| 20260506101004 | 16 | 71 | 0.0 | 1.6 | 0.00 | 0.00 | 0.00 | 93 | 1014.7 |
| 20260506100504 | 16 | 71 | 0.0 | 1.6 | 0.00 | 0.00 | 0.00 | 93 | 1014.7 |
| 20260506100004 | 16 | 71 | 0.0 | 0.0 | 0.00 | 0.00 | 0.00 | 93 | 1014.8 |
| 20260506095505 | 16 | 71 | 0.0 | 0.0 | 0.00 | 0.00 | 0.00 | 93 | 1014.9 |
| 20260506094504 | 16 | 71 | 0.0 | 0.0 | 0.00 | 0.00 | 0.00 | 92 | 1014.8 |
| 20260506094005 | 16 | 71 | 0.0 | 0.0 | 0.00 | 0.00 | 0.00 | 92 | 1014.8 |
| 20260506093504 | 16 | 71 | 0.0 | 0.0 | 0.00 | 0.00 | 0.00 | 92 | 1014.7 |
| 20260506093007 | 16 | 71 | 0.0 | 0.0 | 0.00 | 0.00 | 0.00 | 92 | 1014.7 |
| 20260506092503 | 16 | 71 | 0.0 | 0.0 | 0.00 | 0.00 | 0.00 | 92 | 1014.5 |
| 20260506092004 | 16 | 71 | 0.0 | 0.0 | 0.00 | 0.00 | 0.00 | 92 | 1014.4 |
| 20260506091504 | 16 | 71 | 0.0 | 0.0 | 0.00 | 0.00 | 0.00 | 92 | 1014.4 |
| 20260506091004 | 16 | 71 | 0.0 | 0.0 | 0.00 | 0.00 | 0.00 | 92 | 1014.2 |
| 20260506090503 | 16 | 71 | 0.0 | 1.6 | 0.00 | 0.00 | 0.00 | 92 | 1014.3 |
| 20260506090006 | 16 | 71 | 0.0 | 3.2 | 0.00 | 0.00 | 0.00 | 92 | 1014.3 |
| 20260506085504 | 16 | 71 | 1.6 | 3.2 | 0.00 | 0.00 | 0.00 | 92 | 1014.3 |
| 20260506085005 | 16 | 71 | 0.0 | 1.6 | 0.00 | 0.00 | 0.00 | 92 | 1014.4 |
| 20260506084504 | 16 | 71 | 0.0 | 0.0 | 0.00 | 0.00 | 0.00 | 92 | 1014.5 |
| 20260506084005 | 16 | 71 | 0.0 | 0.0 | 0.00 | 0.00 | 0.00 | 92 | 1014.5 |
| 20260506083504 | 16 | 71 | 0.0 | 0.0 | 0.00 | 0.00 | 0.00 | 92 | 1014.5 |
| 20260506081504 | 16 | 71 | 0.0 | 0.0 | 0.00 | 0.00 | 0.00 | 92 | 1014.4 |
| 20260506081004 | 16 | 71 | 0.0 | 0.0 | 0.00 | 0.00 | 0.00 | 92 | 1014.4 |
| 20260506080504 | 16 | 71 | 0.0 | 0.0 | 0.00 | 0.00 | 0.00 | 92 | 1014.5 |
| 20260506073504 | 16 | 71 | 0.0 | 0.0 | 0.00 | 0.00 | 0.00 | 91 | 1014.1 |
| 20260506073004 | 16 | 71 | 0.0 | 0.0 | 0.00 | 0.00 | 0.00 | 91 | 1014.0 |
| 20260506072504 | 16 | 71 | 0.0 | 0.0 | 0.00 | 0.00 | 0.00 | 91 | 1014.2 |
| 20260506071005 | 16 | 71 | 0.0 | 0.0 | 0.00 | 0.00 | 0.00 | 91 | 1014.4 |
| 20260506070504 | 16 | 71 | 0.0 | 0.0 | 0.00 | 0.00 | 0.00 | 91 | 1014.5 |
| 20260506062504 | 16 | 71 | 0.0 | 1.6 | 0.00 | 0.00 | 0.00 | 90 | 1014.8 |
| 20260506062003 | 16 | 71 | 0.0 | 1.6 | 0.00 | 0.00 | 0.00 | 90 | 1014.8 |
| 20260506061504 | 16 | 71 | 0.0 | 0.0 | 0.00 | 0.00 | 0.00 | 90 | 1014.9 |
| 20260506061004 | 16 | 71 | 0.0 | 0.0 | 0.00 | 0.00 | 0.00 | 90 | 1015.1 |
| 20260506051003 | 17 | 71 | 0.0 | 0.0 | 0.00 | 0.00 | 0.00 | 87 | 1015.4 |
| 20260506050503 | 17 | 71 | 0.0 | 0.0 | 0.00 | 0.00 | 0.00 | 87 | 1015.4 |
| 20260506045003 | 17 | 71 | 0.0 | 0.0 | 0.00 | 0.00 | 0.00 | 87 | 1015.5 |
| 20260506044504 | 17 | 71 | 0.0 | 0.0 | 0.00 | 0.00 | 0.00 | 86 | 1015.6 |
| 20260506044004 | 17 | 71 | 0.0 | 0.0 | 0.00 | 0.00 | 0.00 | 85 | 1015.6 |
| 20260506043004 | 17 | 71 | 0.0 | 0.0 | 0.00 | 0.00 | 0.00 | 85 | 1015.6 |
| 20260506042504 | 17 | 71 | 0.0 | 0.0 | 0.00 | 0.00 | 0.00 | 85 | 1015.6 |
| 20260506042004 | 17 | 71 | 0.0 | 0.0 | 0.00 | 0.00 | 0.00 | 85 | 1015.6 |
| 20260506041504 | 17 | 71 | 0.0 | 0.0 | 0.00 | 0.00 | 0.00 | 85 | 1015.7 |
| 20260506041005 | 17 | 71 | 0.0 | 0.0 | 0.00 | 0.00 | 0.00 | 85 | 1015.8 |
| 20260506040505 | 17 | 71 | 0.0 | 0.0 | 0.00 | 0.00 | 0.00 | 85 | 1015.9 |
| 20260506040004 | 17 | 71 | 0.0 | 0.0 | 0.00 | 0.00 | 0.00 | 84 | 1015.9 |
| 20260506035004 | 17 | 71 | 0.0 | 0.0 | 0.00 | 0.00 | 0.00 | 84 | 1015.8 |
| 20260506034505 | 17 | 71 | 0.0 | 0.0 | 0.00 | 0.00 | 0.00 | 84 | 1015.8 |
| 20260506034004 | 17 | 71 | 0.0 | 0.0 | 0.00 | 0.00 | 0.00 | 83 | 1015.7 |
| 20260506033004 | 18 | 71 | 0.0 | 1.6 | 0.00 | 0.00 | 0.00 | 83 | 1015.6 |
| 20260506032504 | 18 | 71 | 0.0 | 0.0 | 0.00 | 0.00 | 0.00 | 82 | 1015.5 |
| 20260506032003 | 18 | 71 | 0.0 | 0.0 | 0.00 | 0.00 | 0.00 | 81 | 1015.4 |
| 20260506031505 | 18 | 71 | 0.0 | 0.0 | 0.00 | 0.00 | 0.00 | 80 | 1015.3 |
| 20260506031004 | 18 | 71 | 0.0 | 1.6 | 0.00 | 0.00 | 0.00 | 80 | 1015.3 |
| 20260506030004 | 18 | 71 | 0.0 | 1.6 | 0.00 | 0.00 | 0.00 | 79 | 1015.3 |
| 20260506025505 | 18 | 71 | 0.0 | 0.0 | 0.00 | 0.00 | 0.00 | 77 | 1015.4 |
| 20260506025004 | 19 | 71 | 0.0 | 0.0 | 0.00 | 0.00 | 0.00 | 77 | 1015.3 |
| 20260506024503 | 19 | 71 | 0.0 | 0.0 | 0.00 | 0.00 | 0.00 | 76 | 1015.4 |
| 20260506024004 | 19 | 71 | 0.0 | 0.0 | 0.00 | 0.00 | 0.00 | 76 | 1015.4 |
| 20260506023504 | 20 | 71 | 0.0 | 1.6 | 0.00 | 0.00 | 0.00 | 75 | 1015.4 |
| 20260506023004 | 20 | 71 | 0.0 | 1.6 | 0.00 | 0.00 | 0.00 | 75 | 1015.3 |
| 20260506022503 | 20 | 71 | 0.0 | 0.0 | 0.00 | 0.00 | 0.00 | 73 | 1015.2 |
| 20260506022005 | 20 | 71 | 0.0 | 0.0 | 0.00 | 0.00 | 0.00 | 72 | 1015.1 |
| 20260506021003 | 20 | 71 | 0.0 | 1.6 | 0.00 | 0.00 | 0.00 | 71 | 1015.0 |
| 20260506020504 | 21 | 71 | 0.0 | 0.0 | 0.00 | 0.00 | 0.00 | 70 | 1015.0 |
| 20260506020004 | 21 | 71 | 0.0 | 0.0 | 0.00 | 0.00 | 0.00 | 69 | 1015.0 |
| 20260506015505 | 21 | 71 | 0.0 | 0.0 | 0.00 | 0.00 | 0.00 | 68 | 1014.9 |
| 20260506014503 | 21 | 71 | 0.0 | 4.8 | 0.00 | 0.00 | 0.00 | 67 | 1014.8 |
| 20260506014004 | 21 | 71 | 1.6 | 4.8 | 0.00 | 0.00 | 0.00 | 67 | 1014.7 |
| 20260506013505 | 21 | 140 | 0.0 | 1.6 | 0.00 | 0.00 | 0.00 | 67 | 1014.6 |
| 20260506012504 | 22 | 79 | 0.0 | 4.8 | 0.00 | 0.00 | 0.00 | 65 | 1014.6 |
| 20260506012004 | 22 | 79 | 1.6 | 4.8 | 0.00 | 0.00 | 0.00 | 65 | 1014.5 |
| 20260506011504 | 22 | 108 | 1.6 | 4.8 | 0.00 | 0.00 | 0.00 | 65 | 1014.5 |
| 20260506010504 | 22 | 89 | 1.6 | 4.8 | 0.00 | 0.00 | 0.00 | 64 | 1014.5 |
| 20260506005504 | 22 | 88 | 1.6 | 3.2 | 0.00 | 0.00 | 0.00 | 62 | 1014.6 |
| 20260506005003 | 22 | 87 | 0.0 | 11.3 | 0.00 | 0.00 | 0.00 | 61 | 1014.5 |
| 20260506004504 | 22 | 97 | 1.6 | 11.3 | 0.00 | 0.00 | 0.00 | 61 | 1014.5 |
| 20260506004003 | 22 | 95 | 3.2 | 11.3 | 0.00 | 0.00 | 0.00 | 60 | 1014.5 |
| 20260506003504 | 23 | 98 | 1.6 | 4.8 | 0.00 | 0.00 | 0.00 | 60 | 1014.4 |
| 20260506003004 | 23 | 91 | 3.2 | 8.0 | 0.00 | 0.00 | 0.00 | 60 | 1014.3 |
| 20260506002504 | 23 | 71 | 4.8 | 11.3 | 0.00 | 0.00 | 0.00 | 59 | 1014.3 |
| 20260506002003 | 23 | 117 | 4.8 | 11.3 | 0.00 | 0.00 | 0.00 | 59 | 1014.3 |
| 20260506001503 | 23 | 77 | 3.2 | 9.7 | 0.00 | 0.00 | 0.00 | 58 | 1014.2 |
| 20260506001004 | 23 | 92 | 3.2 | 11.3 | 0.00 | 0.00 | 0.00 | 58 | 1014.1 |
| 20260506000504 | 23 | 74 | 1.6 | 11.3 | 0.00 | 0.00 | 0.00 | 57 | 1014.0 |
| 20260506000004 | 23 | 101 | 1.6 | 12.9 | 0.00 | 0.00 | 0.00 | 56 | 1014.0 |
| 20260505235504 | 23 | 89 | 1.6 | 14.5 | 0.00 | 0.00 | 0.00 | 56 | 1013.9 |
| 20260505235004 | 24 | 94 | 8.0 | 14.5 | 0.00 | 0.00 | 0.00 | 55 | 1013.8 |
| 20260505234504 | 24 | 105 | 3.2 | 11.3 | 0.00 | 0.00 | 0.00 | 54 | 1013.9 |
| 20260505233504 | 24 | 80 | 3.2 | 12.9 | 0.00 | 0.00 | 0.00 | 52 | 1013.8 |
| 20260505233004 | 25 | 96 | 6.4 | 19.3 | 0.00 | 0.00 | 0.00 | 52 | 1013.8 |
| 20260505232504 | 25 | 91 | 6.4 | 19.3 | 0.00 | 0.00 | 0.00 | 51 | 1013.8 |
| 20260505232005 | 25 | 99 | 6.4 | 14.5 | 0.00 | 0.00 | 0.00 | 51 | 1013.8 |
| 20260505231504 | 25 | 102 | 6.4 | 14.5 | 0.00 | 0.00 | 0.00 | 50 | 1013.8 |
| 20260505231004 | 25 | 127 | 3.2 | 16.1 | 0.00 | 0.00 | 0.00 | 51 | 1013.8 |
| 20260505230503 | 25 | 91 | 6.4 | 19.3 | 0.00 | 0.00 | 0.00 | 50 | 1013.8 |
| 20260505230004 | 25 | 74 | 6.4 | 19.3 | 0.00 | 0.00 | 0.00 | 50 | 1013.7 |
| 20260505225504 | 25 | 119 | 8.0 | 14.5 | 0.00 | 0.00 | 0.00 | 49 | 1013.7 |
| 20260505225004 | 26 | 102 | 4.8 | 14.5 | 0.00 | 0.00 | 0.00 | 50 | 1013.8 |
| 20260505224504 | 26 | 74 | 4.8 | 19.3 | 0.00 | 0.00 | 0.00 | 49 | 1013.7 |
| 20260505224005 | 26 | 89 | 8.0 | 19.3 | 0.00 | 0.00 | 0.00 | 48 | 1013.7 |
| 20260505223504 | 26 | 93 | 4.8 | 16.1 | 0.00 | 0.00 | 0.00 | 49 | 1013.6 |
| 20260505223005 | 26 | 120 | 4.8 | 16.1 | 0.00 | 0.00 | 0.00 | 48 | 1013.6 |
| 20260505222504 | 26 | 128 | 8.0 | 24.1 | 0.00 | 0.00 | 0.00 | 49 | 1013.5 |
| 20260505222004 | 26 | 93 | 9.7 | 24.1 | 0.00 | 0.00 | 0.00 | 48 | 1013.6 |
| 20260505220503 | 26 | 90 | 11.3 | 22.5 | 0.00 | 0.00 | 0.00 | 47 | 1013.6 |
| 20260505220004 | 27 | 101 | 1.6 | 16.1 | 0.00 | 0.00 | 0.00 | 49 | 1013.6 |
| 20260505215004 | 27 | 94 | 8.0 | 19.3 | 0.00 | 0.00 | 0.00 | 47 | 1013.6 |
| 20260505214504 | 27 | 137 | 8.0 | 19.3 | 0.00 | 0.00 | 0.00 | 47 | 1013.5 |
| 20260505213504 | 27 | 124 | 4.8 | 19.3 | 0.00 | 0.00 | 0.00 | 48 | 1013.5 |
| 20260505213004 | 27 | 87 | 6.4 | 19.3 | 0.00 | 0.00 | 0.00 | 46 | 1013.6 |
| 20260505212505 | 27 | 98 | 9.7 | 19.3 | 0.00 | 0.00 | 0.00 | 46 | 1013.6 |
| 20260505211505 | 27 | 111 | 6.4 | 19.3 | 0.00 | 0.00 | 0.00 | 48 | 1013.7 |
| 20260505210505 | 27 | 92 | 4.8 | 19.3 | 0.00 | 0.00 | 0.00 | 47 | 1013.7 |
| 20260505210004 | 27 | 82 | 9.7 | 22.5 | 0.00 | 0.00 | 0.00 | 46 | 1013.7 |
| 20260505205504 | 27 | 79 | 9.7 | 22.5 | 0.00 | 0.00 | 0.00 | 45 | 1013.7 |
| 20260505204504 | 28 | 122 | 3.2 | 19.3 | 0.00 | 0.00 | 0.00 | 47 | 1013.7 |
| 20260505204003 | 28 | 103 | 11.3 | 19.3 | 0.00 | 0.00 | 0.00 | 46 | 1013.7 |
| 20260505203504 | 28 | 98 | 8.0 | 16.1 | 0.00 | 0.00 | 0.00 | 45 | 1013.7 |
| 20260505203004 | 28 | 110 | 6.4 | 19.3 | 0.00 | 0.00 | 0.00 | 46 | 1013.8 |
| 20260505202504 | 28 | 116 | 6.4 | 20.9 | 0.00 | 0.00 | 0.00 | 46 | 1013.9 |
| 20260505202006 | 28 | 121 | 9.7 | 20.9 | 0.00 | 0.00 | 0.00 | 46 | 1014.1 |
| 20260505195003 | 28 | 91 | 11.3 | 22.5 | 0.00 | 0.00 | 0.00 | 45 | 1014.1 |
| 20260505193504 | 29 | 121 | 8.0 | 19.3 | 0.00 | 0.00 | 0.00 | 45 | 1014.2 |
| 20260505193003 | 29 | 72 | 4.8 | 16.1 | 0.00 | 0.00 | 0.00 | 45 | 1014.2 |
| 20260505192504 | 29 | 83 | 8.0 | 16.1 | 0.00 | 0.00 | 0.00 | 44 | 1014.3 |
| 20260505192004 | 29 | 79 | 4.8 | 11.3 | 0.00 | 0.00 | 0.00 | 45 | 1014.3 |
| 20260505191505 | 28 | 326 | 3.2 | 12.9 | 0.00 | 0.00 | 0.00 | 44 | 1014.3 |
| 20260505190004 | 29 | 54 | 3.2 | 12.9 | 0.00 | 0.00 | 0.00 | 43 | 1014.6 |
| 20260505185504 | 29 | 66 | 6.4 | 11.3 | 0.00 | 0.00 | 0.00 | 40 | 1014.6 |
| 20260505185004 | 29 | 82 | 1.6 | 11.3 | 0.00 | 0.00 | 0.00 | 42 | 1014.7 |
| 20260505184504 | 28 | 342 | 1.6 | 14.5 | 0.00 | 0.00 | 0.00 | 42 | 1014.8 |
| 20260505184004 | 28 | 109 | 8.0 | 14.5 | 0.00 | 0.00 | 0.00 | 42 | 1014.8 |
| 20260505183004 | 29 | 103 | 4.8 | 11.3 | 0.00 | 0.00 | 0.00 | 42 | 1014.9 |
| 20260505182504 | 29 | 118 | 4.8 | 14.5 | 0.00 | 0.00 | 0.00 | 42 | 1015.0 |
| 20260505182004 | 29 | 2 | 3.2 | 14.5 | 0.00 | 0.00 | 0.00 | 44 | 1015.0 |
| 20260505181504 | 29 | 135 | 4.8 | 11.3 | 0.00 | 0.00 | 0.00 | 42 | 1015.0 |
| 20260505181005 | 28 | 82 | 1.6 | 16.1 | 0.00 | 0.00 | 0.00 | 44 | 1015.0 |
| 20260505180504 | 28 | 127 | 4.8 | 16.1 | 0.00 | 0.00 | 0.00 | 42 | 1015.1 |
| 20260505180004 | 29 | 331 | 3.2 | 12.9 | 0.00 | 0.00 | 0.00 | 41 | 1015.1 |
| 20260505175004 | 29 | 44 | 4.8 | 14.5 | 0.00 | 0.00 | 0.00 | 41 | 1015.2 |
| 20260505174505 | 29 | 41 | 3.2 | 14.5 | 0.00 | 0.00 | 0.00 | 42 | 1015.3 |
| 20260505174004 | 29 | 113 | 3.2 | 12.9 | 0.00 | 0.00 | 0.00 | 42 | 1015.5 |
| 20260505173504 | 29 | 136 | 3.2 | 11.3 | 0.00 | 0.00 | 0.00 | 42 | 1015.5 |
| 20260505173004 | 28 | 155 | 0.0 | 11.3 | 0.00 | 0.00 | 0.00 | 43 | 1015.5 |
| 20260505172504 | 28 | 98 | 4.8 | 11.3 | 0.00 | 0.00 | 0.00 | 43 | 1015.6 |
| 20260505172003 | 28 | 10 | 3.2 | 11.3 | 0.00 | 0.00 | 0.00 | 43 | 1015.5 |
| 20260505171503 | 28 | 119 | 4.8 | 12.9 | 0.00 | 0.00 | 0.00 | 45 | 1015.6 |
| 20260505171003 | 28 | 156 | 3.2 | 12.9 | 0.00 | 0.00 | 0.00 | 46 | 1015.7 |
| 20260505170505 | 28 | 82 | 4.8 | 12.9 | 0.00 | 0.00 | 0.00 | 45 | 1015.8 |
| 20260505170004 | 28 | 81 | 3.2 | 11.3 | 0.00 | 0.00 | 0.00 | 46 | 1015.7 |